Latest Weather Observations for Arlington Reef

IDQ60801

Issued at 2:32 pm EST Friday 31 July 2015 (issued every 30 minutes, with the page automatically refreshed every 10 minutes)

About weather observations | Map of weather stations | Latest weather observations for QLD | Other Formats
Station Details ID: 200879 Name: ARLINGTON REEF Lat: -16.72 Lon: 146.11 Height: 0.0 m
Data from the previous 72 hours. | See also: Recent months at Arlington Reef
Date/Time
EST
Temp
°C
App
Temp
°C
Dew
Point
Rel
Hum
%
Delta-T
°C
Wind Press
QNH
hPa
Press
MSL
hPa
Rain
since 9 am
mm
Dir
 
Spd
km/h
Gust
km/h
Spd
kts
Gust
kts
31/02:30pm - - - - - SSE 43 50 23 27 1016.8 1016.8 -
31/02:00pm - - - - - SSE 44 50 24 27 1017.0 1017.0 -
31/01:30pm - - - - - SSE 41 50 22 27 1017.3 1017.3 -
31/01:00pm - - - - - SSE 43 50 23 27 1017.7 1017.7 -
31/12:30pm - - - - - SSE 39 46 21 25 1018.2 1018.2 -
31/12:00pm - - - - - SSE 41 48 22 26 1018.5 1018.5 -
31/11:30am - - - - - SSE 41 48 22 26 1018.9 1018.9 -
31/11:00am - - - - - SSE 32 37 17 20 1019.4 1019.4 -
31/10:30am - - - - - SSE 37 44 20 24 1019.7 1019.7 -
31/10:00am - - - - - SSE 35 41 19 22 1020.0 1020.0 -
31/09:51am - - - - - SSE 37 56 20 30 1020.1 1020.1 -
31/09:30am - - - - - SSE 35 46 19 25 1020.1 1020.1 -
31/09:00am - - - - - SE 41 52 22 28 1020.1 1020.1 -
31/08:30am - - - - - SSE 44 52 24 28 1019.6 1019.6 -
31/08:00am - - - - - SE 41 46 22 25 1019.5 1019.5 -
31/07:30am - - - - - SE 39 48 21 26 1019.3 1019.3 -
31/07:00am - - - - - SE 39 46 21 25 1018.7 1018.7 -
31/06:30am - - - - - ESE 33 48 18 26 1018.5 1018.5 -
31/06:22am - - - - - SE 39 48 21 26 1018.4 1018.4 -
31/06:15am - - - - - SE 35 43 19 23 1018.2 1018.2 -
31/06:00am - - - - - ESE 26 33 14 18 1018.5 1018.5 -
31/05:53am - - - - - SE 30 35 16 19 1018.5 1018.5 -
31/05:30am - - - - - SE 39 50 21 27 1018.1 1018.1 -
31/05:00am - - - - - SSE 33 41 18 22 1018.3 1018.3 -
31/04:30am - - - - - SSE 33 41 18 22 1018.3 1018.3 -
31/04:00am - - - - - SSE 46 59 25 32 1018.3 1018.3 -
31/03:30am - - - - - SE 37 46 20 25 1018.3 1018.3 -
31/03:00am - - - - - SE 35 44 19 24 1018.7 1018.7 -
31/02:40am - - - - - SE 46 65 25 35 1019.0 1019.0 -
31/02:30am - - - - - SE 52 65 28 35 1018.5 1018.5 -
31/02:00am - - - - - ESE 44 54 24 29 1018.9 1018.9 -
31/01:30am - - - - - SSE 35 54 19 29 1019.0 1019.0 -
31/01:00am - - - - - SSE 32 39 17 21 1019.6 1019.6 -
31/12:30am - - - - - SSE 35 43 19 23 1019.7 1019.7 -
31/12:00am - - - - - SSE 30 37 16 20 1019.9 1019.9 -
 
Date/Time
EST
Temp
°C
App
Temp
°C
Dew
Point
Rel
Hum
%
Delta-T
°C
Wind Press
QNH
hPa
Press
MSL
hPa
Rain
since 9 am
mm
Dir
 
Spd
km/h
Gust
km/h
Spd
kts
Gust
kts
30/11:30pm - - - - - SSE 33 44 18 24 1019.9 1019.9 -
30/11:08pm - - - - - SSE 39 72 21 39 1020.4 1020.4 -
30/11:03pm - - - - - S 39 72 21 39 1020.4 1020.4 -
30/11:01pm - - - - - S 39 72 21 39 1020.1 1020.1 -
30/11:00pm - - - - - S 37 48 20 26 1020.2 1020.2 -
30/10:30pm - - - - - S 32 37 17 20 1020.2 1020.2 -
30/10:00pm - - - - - SE 35 43 19 23 1020.3 1020.3 -
30/09:30pm - - - - - SSE 32 39 17 21 1020.2 1020.2 -
30/09:00pm - - - - - S 43 52 23 28 1020.0 1020.0 -
30/08:30pm - - - - - S 35 44 19 24 1020.0 1020.0 -
30/08:00pm - - - - - S 35 43 19 23 1019.9 1019.9 -
30/07:30pm - - - - - S 39 46 21 25 1019.3 1019.3 -
30/07:00pm - - - - - S 41 50 22 27 1019.1 1019.1 -
30/06:30pm - - - - - S 35 43 19 23 1018.9 1018.9 -
30/06:00pm - - - - - SSE 41 46 22 25 1018.8 1018.8 -
30/05:30pm - - - - - S 41 50 22 27 1018.6 1018.6 -
30/05:00pm - - - - - S 41 50 22 27 1018.3 1018.3 -
30/04:30pm - - - - - S 43 48 23 26 1018.2 1018.2 -
30/04:00pm - - - - - S 43 50 23 27 1018.0 1018.0 -
30/03:30pm - - - - - S 41 48 22 26 1017.9 1017.9 -
30/03:00pm - - - - - S 43 50 23 27 1018.1 1018.1 -
30/02:30pm - - - - - S 43 48 23 26 1018.3 1018.3 -
30/02:00pm - - - - - S 43 50 23 27 1018.7 1018.7 -
30/01:30pm - - - - - SSE 41 48 22 26 1019.0 1019.0 -
30/01:00pm - - - - - SSE 43 50 23 27 1019.4 1019.4 -
30/12:30pm - - - - - SSE 43 50 23 27 1020.0 1020.0 -
30/12:00pm - - - - - SSE 43 50 23 27 1020.2 1020.2 -
30/11:30am - - - - - SSE 41 50 22 27 1020.5 1020.5 -
30/11:00am - - - - - SSE 43 52 23 28 1020.7 1020.7 -
30/10:30am - - - - - SSE 44 50 24 27 1020.8 1020.8 -
30/10:00am - - - - - SSE 43 52 23 28 1020.9 1020.9 -
30/09:30am - - - - - SE 44 54 24 29 1021.0 1021.0 -
30/09:00am - - - - - SE 41 48 22 26 1020.9 1020.9 -
30/08:30am - - - - - SE 46 54 25 29 1020.7 1020.7 -
30/08:00am - - - - - SSE 43 52 23 28 1020.1 1020.1 -
30/07:30am - - - - - SE 50 57 27 31 1020.0 1020.0 -
30/07:00am - - - - - SSE 43 57 23 31 1019.7 1019.7 -
30/06:30am - - - - - SSE 43 52 23 28 1019.5 1019.5 -
30/06:00am - - - - - SSE 44 56 24 30 1019.0 1019.0 -
30/05:30am - - - - - SE 43 56 23 30 1018.9 1018.9 -
30/05:00am - - - - - SSE 43 52 23 28 1018.8 1018.8 -
30/04:30am - - - - - SE 48 56 26 30 1018.7 1018.7 -
30/04:00am - - - - - SE 44 54 24 29 1018.6 1018.6 -
30/03:30am - - - - - SE 44 54 24 29 1018.7 1018.7 -
30/03:00am - - - - - SE 43 54 23 29 1018.8 1018.8 -
30/02:30am - - - - - SE 46 54 25 29 1019.0 1019.0 -
30/02:00am - - - - - SE 48 56 26 30 1019.5 1019.5 -
30/01:30am - - - - - SSE 48 57 26 31 1019.8 1019.8 -
30/01:00am - - - - - SSE 48 57 26 31 1019.8 1019.8 -
30/12:30am - - - - - SE 50 59 27 32 1020.1 1020.1 -
30/12:00am - - - - - SSE 50 61 27 33 1020.4 1020.4 -
 
Date/Time
EST
Temp
°C
App
Temp
°C
Dew
Point
Rel
Hum
%
Delta-T
°C
Wind Press
QNH
hPa
Press
MSL
hPa
Rain
since 9 am
mm
Dir
 
Spd
km/h
Gust
km/h
Spd
kts
Gust
kts
29/11:30pm - - - - - SSE 50 63 27 34 1020.7 1020.7 -
29/11:00pm - - - - - SSE 50 63 27 34 1021.0 1021.0 -
29/10:30pm - - - - - SSE 52 61 28 33 1021.1 1021.1 -
29/10:00pm - - - - - SSE 52 63 28 34 1021.0 1021.0 -
29/09:30pm - - - - - SSE 52 61 28 33 1020.9 1020.9 -
29/09:00pm - - - - - SSE 50 61 27 33 1020.8 1020.8 -
29/08:30pm - - - - - SSE 48 61 26 33 1020.7 1020.7 -
29/08:00pm - - - - - SSE 50 61 27 33 1020.4 1020.4 -
29/07:30pm - - - - - SSE 48 59 26 32 1019.9 1019.9 -
29/07:00pm - - - - - SE 48 61 26 33 1019.7 1019.7 -
29/06:30pm - - - - - SSE 48 57 26 31 1019.3 1019.3 -
29/06:00pm - - - - - SSE 46 57 25 31 1019.2 1019.2 -
29/05:30pm - - - - - SSE 46 57 25 31 1019.0 1019.0 -
29/05:00pm - - - - - SSE 48 59 26 32 1018.7 1018.7 -
29/04:30pm - - - - - SSE 48 61 26 33 1018.5 1018.5 -
29/04:20pm - - - - - SSE 50 70 27 38 1018.4 1018.4 -
29/04:00pm - - - - - S 46 57 25 31 1018.5 1018.5 -
29/03:30pm - - - - - S 46 56 25 30 1018.2 1018.2 -
29/03:00pm - - - - - S 52 61 28 33 1018.2 1018.2 -
29/02:30pm - - - - - S 52 63 28 34 1018.5 1018.5 -
29/02:00pm - - - - - S 54 65 29 35 1018.6 1018.6 -
29/01:30pm - - - - - S 46 57 25 31 1018.9 1018.9 -
29/01:00pm - - - - - S 48 59 26 32 1019.3 1019.3 -
29/12:30pm - - - - - S 52 61 28 33 1019.7 1019.7 -
29/12:00pm - - - - - S 50 59 27 32 1020.4 1020.4 -
29/11:30am - - - - - S 48 61 26 33 1020.6 1020.6 -
29/11:00am - - - - - S 52 61 28 33 1020.9 1020.9 -
29/10:30am - - - - - S 48 59 26 32 1021.5 1021.5 -
29/10:00am - - - - - S 50 63 27 34 1021.6 1021.6 -
29/09:30am - - - - - SSE 50 61 27 33 1021.5 1021.5 -
29/09:00am - - - - - SSE 52 63 28 34 1021.6 1021.6 -
29/08:30am - - - - - SSE 52 61 28 33 1021.2 1021.2 -
29/08:00am - - - - - SSE 48 57 26 31 1021.0 1021.0 -
29/07:30am - - - - - SSE 50 61 27 33 1020.7 1020.7 -
29/07:00am - - - - - SSE 46 57 25 31 1020.5 1020.5 -
29/06:30am - - - - - SSE 46 54 25 29 1020.2 1020.2 -
29/06:00am - - - - - SSE 48 59 26 32 1019.9 1019.9 -
29/05:30am - - - - - SSE 48 57 26 31 1019.9 1019.9 -
29/05:00am - - - - - SSE 50 57 27 31 1019.6 1019.6 -
29/04:30am - - - - - SSE 46 56 25 30 1019.7 1019.7 -
29/04:00am - - - - - SSE 46 56 25 30 1019.6 1019.6 -
29/03:30am - - - - - SSE 48 59 26 32 1019.5 1019.5 -
29/03:00am - - - - - SE 48 61 26 33 1019.8 1019.8 -
29/02:30am - - - - - SE 46 54 25 29 1020.0 1020.0 -
29/02:00am - - - - - SSE 48 57 26 31 1019.9 1019.9 -
29/01:30am - - - - - SSE 44 54 24 29 1020.3 1020.3 -
29/01:00am - - - - - SSE 46 54 25 29 1020.4 1020.4 -
29/12:30am - - - - - SE 46 56 25 30 1020.6 1020.6 -
29/12:00am - - - - - SE 44 52 24 28 1020.8 1020.8 -
 
Date/Time
EST
Temp
°C
App
Temp
°C
Dew
Point
Rel
Hum
%
Delta-T
°C
Wind Press
QNH
hPa
Press
MSL
hPa
Rain
since 9 am
mm
Dir
 
Spd
km/h
Gust
km/h
Spd
kts
Gust
kts
28/11:30pm - - - - - SE 41 48 22 26 1021.1 1021.1 -
28/11:00pm - - - - - SE 41 46 22 25 1021.2 1021.2 -
28/10:30pm - - - - - SE 37 46 20 25 1021.5 1021.5 -
28/10:00pm - - - - - SE 46 54 25 29 1021.7 1021.7 -
28/09:30pm - - - - - SSE 46 56 25 30 1021.7 1021.7 -
28/09:00pm - - - - - SSE 46 56 25 30 1021.5 1021.5 -
28/08:30pm - - - - - SSE 48 57 26 31 1021.2 1021.2 -
28/08:00pm - - - - - SSE 48 57 26 31 1020.9 1020.9 -
28/07:30pm - - - - - SSE 48 59 26 32 1020.7 1020.7 -
28/07:00pm - - - - - SSE 52 59 28 32 1020.2 1020.2 -
28/06:30pm - - - - - SSE 46 56 25 30 1019.8 1019.8 -
28/06:00pm - - - - - SSE 44 56 24 30 1019.5 1019.5 -
28/05:30pm - - - - - SSE 44 52 24 28 1019.4 1019.4 -
28/05:00pm - - - - - SSE 46 54 25 29 1019.0 1019.0 -
28/04:30pm - - - - - SSE 41 46 22 25 1018.9 1018.9 -
28/04:00pm - - - - - SSE 41 46 22 25 1018.5 1018.5 -
28/03:30pm - - - - - SSE 35 43 19 23 1018.4 1018.4 -
28/03:00pm - - - - - SSE 35 43 19 23 1018.5 1018.5 -

Other Formats:

Comma delimited format used in spreadsheet applications
http://www.bom.gov.au/fwo/IDQ60801/IDQ60801.94284.axf

JavaScript Object Notation format (JSON) in row-major order
http://www.bom.gov.au/fwo/IDQ60801/IDQ60801.94284.json